Maersk Damietta — A8OU4 — position and weather

sailwx.info

Track history (hours):
 
Tides and Currents Weather Stations Pressure Air Temp Water Temp Dewpoint Dewpoint Depression Visibility Wind Speed Wind Dir Waves Ship Positions

Maersk Damietta

Last reported at 2014-Jul-24 21:33 UTC. Time now 2014-Jul-24 21:41 UTC.
Position N 37°26' E 005°23'.

Length 293 m; draft 10.9 m.

Type: Ship (hazmat cat B). MMSI: 636091506.

Date/timePositionNaut miles runAvg speedWind from/ knotsBaromVisibWave heightAir tempDewpointWater temp
2014-Jul-24 21:33N 37°26' E 005°23'1717.3
2014-Jul-24 20:33N 37°23' E 005°02'1717.4
2014-Jul-24 19:33N 37°20' E 004°41'1717.5
2014-Jul-24 18:33N 37°17' E 004°19'1717.1
2014-Jul-24 17:33N 37°14' E 003°58'1717.1
2014-Jul-24 16:33N 37°10' E 003°37'2118.3
2014-Jul-24 15:25N 37°07' E 003°11'2219.0
2014-Jul-24 14:16N 37°03' E 002°44'1318.4
2014-Jul-24 13:33N 37°00' E 002°28'1817.8
2014-Jul-24 12:33N 36°57' E 002°06'1817.8
2014-Jul-24 11:33N 36°54' E 001°44'1818.3
2014-Jul-24 10:33N 36°50' E 001°22'2318.4
2014-Jul-24 09:17N 36°46' E 000°53'1418.2
2014-Jul-24 08:30N 36°44' E 000°35'1718.2
2014-Jul-24 07:33N 36°41' E 000°14'3818.1
2014-Jul-24 05:26N 36°35' W 000°33'1719.0
2014-Jul-24 04:33N 36°32' W 000°53'3718.5
2014-Jul-24 02:33N 36°26' W 001°39'18318.3
2014-Jul-23 16:33N 36°07' W 005°24'2 1.8
2014-Jul-23 15:31N 36°08' W 005°26'0 0.0
2014-Jul-23 14:31N 36°08' W 005°26'0 0.0
2014-Jul-23 12:19N 36°08' W 005°26'0 0.0
2014-Jul-23 11:21N 36°08' W 005°26'0 0.0
2014-Jul-23 10:24N 36°08' W 005°26'0 0.0
2014-Jul-23 09:18N 36°08' W 005°26'0 0.0
2014-Jul-23 08:24N 36°08' W 005°26'10 0.9
2014-Jul-22 21:33N 35°58' W 005°27'11216.0
2014-Jul-22 14:33N 36°05' W 007°45'1716.8
2014-Jul-22 13:33N 36°08' W 008°06'2417.1
2014-Jul-22 12:09N 36°13' W 008°35'1 7.5
2014-Jul-22 12:00N 36°12' W 008°36'1320.1 340 / 191016.0 1.020.016.723.0
2014-Jul-22 11:21N 36°15' W 008°51'1316.6
2014-Jul-22 10:33N 36°18' W 009°07'1917.7
2014-Jul-22 09:29N 36°23' W 009°30'1010.8
2014-Jul-22 08:33N 36°25' W 009°42'1111.2
2014-Jul-22 07:33N 36°26' W 009°56'1615.8
2014-Jul-22 06:30N 36°30' W 010°16'1515.8
2014-Jul-22 05:32N 36°33' W 010°35'2115.7
2014-Jul-22 04:12N 36°37' W 011°01'1015.2
2014-Jul-22 03:31N 36°39' W 011°13'2116.0
2014-Jul-22 02:12N 36°43' W 011°39'1215.7
2014-Jul-22 01:26N 36°45' W 011°54'1415.8
2014-Jul-22 00:33N 36°48' W 012°11'1615.9
2014-Jul-21 23:33N 36°51' W 012°31'1616.1
2014-Jul-21 22:33N 36°54' W 012°51'17047.8
2014-Jul-21 19:00N 35°30' W 015°54'11015.7 310 / 81022.0 5.4 0.523.019.922.0
2014-Jul-21 12:00N 37°18' W 016°18'35316.4 320 / 81023.0 5.4 0.522.020.522.0
2014-Jul-20 14:27N 37°57' W 023°41'1516.3
2014-Jul-20 13:33N 37°57' W 023°59'1616.0
2014-Jul-20 12:33N 37°58' W 024°20'916.4
2014-Jul-20 12:00N 37°54' W 024°30'1022.1 310 / 81025.0 2.2 1.022.020.522.0
2014-Jul-20 11:33N 37°59' W 024°40'1616.4
2014-Jul-20 10:34N 38°00' W 025°01'1716.6
2014-Jul-20 09:33N 38°01' W 025°22'1616.3
2014-Jul-20 08:33N 38°02' W 025°43'1616.4
2014-Jul-20 07:34N 38°02' W 026°04'1616.2
2014-Jul-20 06:33N 38°03' W 026°24'1616.4
2014-Jul-20 05:34N 38°03' W 026°45'1716.7
2014-Jul-20 04:34N 38°04' W 027°06'1616.1
2014-Jul-20 03:34N 38°04' W 027°27'1716.5
2014-Jul-20 02:33N 38°04' W 027°48'1616.4
2014-Jul-20 01:34N 38°05' W 028°08'1616.3
2014-Jul-20 00:34N 38°05' W 028°29'1616.0
2014-Jul-19 23:34N 38°05' W 028°49'1616.3
2014-Jul-19 22:34N 38°05' W 029°10'1615.8
2014-Jul-19 21:34N 38°05' W 029°30'1615.5
2014-Jul-19 20:34N 38°05' W 029°50'1615.9
2014-Jul-19 19:33N 38°05' W 030°10'1615.9
2014-Jul-19 18:33N 38°05' W 030°30'1616.3
2014-Jul-19 17:34N 38°05' W 030°51'1616.4
2014-Jul-19 16:33N 38°04' W 031°12'3516.4
2014-Jul-19 14:25N 38°04' W 031°57'3112.9
2014-Jul-19 12:00N 38°00' W 032°36'38516.1 360 / 141027.010.8 1.023.019.924.0
2014-Jul-18 12:00N 37°30' W 040°42'55815.5 360 / 211030.010.8 1.524.021.025.0
2014-Jul-17 00:00N 35°48' W 052°06'39916.6 360 / 51032.010.8 0.526.023.127.0
2014-Jul-16 00:00N 34°00' W 059°54'   130 / 121026.010.8 1.026.024.628.0
Track history (hours):
 
Tides and Currents Weather Stations Pressure Air Temp Water Temp Dewpoint Dewpoint Depression Visibility Wind Speed Wind Dir Waves Ship Positions

Maersk Damietta

Last reported at 2014-Jul-24 21:33 UTC. Time now 2014-Jul-24 21:41 UTC.
Position N 37°26' E 005°23'.

Length 293 m; draft 10.9 m.

Type: Ship (hazmat cat B). MMSI: 636091506.

Date/timePositionNaut miles runAvg speedWind from/ knotsBaromVisibWave heightAir tempDewpointWater temp
2014-Jul-24 21:33N 37°26' E 005°23'1717.3
2014-Jul-24 20:33N 37°23' E 005°02'1717.4
2014-Jul-24 19:33N 37°20' E 004°41'1717.5
2014-Jul-24 18:33N 37°17' E 004°19'1717.1
2014-Jul-24 17:33N 37°14' E 003°58'1717.1
2014-Jul-24 16:33N 37°10' E 003°37'2118.3
2014-Jul-24 15:25N 37°07' E 003°11'2219.0
2014-Jul-24 14:16N 37°03' E 002°44'1318.4
2014-Jul-24 13:33N 37°00' E 002°28'1817.8
2014-Jul-24 12:33N 36°57' E 002°06'1817.8
2014-Jul-24 11:33N 36°54' E 001°44'1818.3
2014-Jul-24 10:33N 36°50' E 001°22'2318.4
2014-Jul-24 09:17N 36°46' E 000°53'1418.2
2014-Jul-24 08:30N 36°44' E 000°35'1718.2
2014-Jul-24 07:33N 36°41' E 000°14'3818.1
2014-Jul-24 05:26N 36°35' W 000°33'1719.0
2014-Jul-24 04:33N 36°32' W 000°53'3718.5
2014-Jul-24 02:33N 36°26' W 001°39'18318.3
2014-Jul-23 16:33N 36°07' W 005°24'2 1.8
2014-Jul-23 15:31N 36°08' W 005°26'0 0.0
2014-Jul-23 14:31N 36°08' W 005°26'0 0.0
2014-Jul-23 12:19N 36°08' W 005°26'0 0.0
2014-Jul-23 11:21N 36°08' W 005°26'0 0.0
2014-Jul-23 10:24N 36°08' W 005°26'0 0.0
2014-Jul-23 09:18N 36°08' W 005°26'0 0.0
2014-Jul-23 08:24N 36°08' W 005°26'10 0.9
2014-Jul-22 21:33N 35°58' W 005°27'11216.0
2014-Jul-22 14:33N 36°05' W 007°45'1716.8
2014-Jul-22 13:33N 36°08' W 008°06'2417.1
2014-Jul-22 12:09N 36°13' W 008°35'1 7.5
2014-Jul-22 12:00N 36°12' W 008°36'1320.1 340 / 191016.0 1.020.016.723.0
2014-Jul-22 11:21N 36°15' W 008°51'1316.6
2014-Jul-22 10:33N 36°18' W 009°07'1917.7
2014-Jul-22 09:29N 36°23' W 009°30'1010.8
2014-Jul-22 08:33N 36°25' W 009°42'1111.2
2014-Jul-22 07:33N 36°26' W 009°56'1615.8
2014-Jul-22 06:30N 36°30' W 010°16'1515.8
2014-Jul-22 05:32N 36°33' W 010°35'2115.7
2014-Jul-22 04:12N 36°37' W 011°01'1015.2
2014-Jul-22 03:31N 36°39' W 011°13'2116.0
2014-Jul-22 02:12N 36°43' W 011°39'1215.7
2014-Jul-22 01:26N 36°45' W 011°54'1415.8
2014-Jul-22 00:33N 36°48' W 012°11'1615.9
2014-Jul-21 23:33N 36°51' W 012°31'1616.1
2014-Jul-21 22:33N 36°54' W 012°51'17047.8
2014-Jul-21 19:00N 35°30' W 015°54'11015.7 310 / 81022.0 5.4 0.523.019.922.0
2014-Jul-21 12:00N 37°18' W 016°18'35316.4 320 / 81023.0 5.4 0.522.020.522.0
2014-Jul-20 14:27N 37°57' W 023°41'1516.3
2014-Jul-20 13:33N 37°57' W 023°59'1616.0
2014-Jul-20 12:33N 37°58' W 024°20'916.4
2014-Jul-20 12:00N 37°54' W 024°30'1022.1 310 / 81025.0 2.2 1.022.020.522.0
2014-Jul-20 11:33N 37°59' W 024°40'1616.4
2014-Jul-20 10:34N 38°00' W 025°01'1716.6
2014-Jul-20 09:33N 38°01' W 025°22'1616.3
2014-Jul-20 08:33N 38°02' W 025°43'1616.4
2014-Jul-20 07:34N 38°02' W 026°04'1616.2
2014-Jul-20 06:33N 38°03' W 026°24'1616.4
2014-Jul-20 05:34N 38°03' W 026°45'1716.7
2014-Jul-20 04:34N 38°04' W 027°06'1616.1
2014-Jul-20 03:34N 38°04' W 027°27'1716.5
2014-Jul-20 02:33N 38°04' W 027°48'1616.4
2014-Jul-20 01:34N 38°05' W 028°08'1616.3
2014-Jul-20 00:34N 38°05' W 028°29'1616.0
2014-Jul-19 23:34N 38°05' W 028°49'1616.3
2014-Jul-19 22:34N 38°05' W 029°10'1615.8
2014-Jul-19 21:34N 38°05' W 029°30'1615.5
2014-Jul-19 20:34N 38°05' W 029°50'1615.9
2014-Jul-19 19:33N 38°05' W 030°10'1615.9
2014-Jul-19 18:33N 38°05' W 030°30'1616.3
2014-Jul-19 17:34N 38°05' W 030°51'1616.4
2014-Jul-19 16:33N 38°04' W 031°12'3516.4
2014-Jul-19 14:25N 38°04' W 031°57'3112.9
2014-Jul-19 12:00N 38°00' W 032°36'38516.1 360 / 141027.010.8 1.023.019.924.0
2014-Jul-18 12:00N 37°30' W 040°42'55815.5 360 / 211030.010.8 1.524.021.025.0
2014-Jul-17 00:00N 35°48' W 052°06'39916.6 360 / 51032.010.8 0.526.023.127.0
2014-Jul-16 00:00N 34°00' W 059°54'   130 / 121026.010.8 1.026.024.628.0

Dump ship's entire track history